EZY89DB EGCC-EGJJ
Flight info
| Callsign | EZY89DB |
|---|---|
| Flight time | 0h 57m |
| Altitude | 23000 |
| Route | ASMIM DCT NOKIN P17 BEPHE/N0402F220 DCT OSSEP DCT ELNIF DCT ZESPE DCT DAWLY DCT ABBEW/N0396F210 N90 ENHEL N862 SKERY |
| Aircraft | A320/M-SDE3FGHIRWY/LB1 |
Departure
| Time | 2026-05-05 12:51 |
|---|---|
| Airport | Manchester Airport (EGCC) |
Arrival
| Time | 2026-05-05 13:48 |
|---|---|
| Airport | Jersey Airport (EGJJ) |
| Time | Latitude | Longitude | Altitude | Speed | Heading |
|---|---|---|---|---|---|
| 2026-05-05 12:01 | 53.36555 | -2.27933 | 255 ft | 0 kts | 45° |
| 2026-05-05 12:36 | 53.36553 | -2.27937 | 255 ft | 3 kts | 45° |
| 2026-05-05 12:36 | 53.36535 | -2.27969 | 282 ft | 4 kts | 52° |
| 2026-05-05 12:36 | 53.36520 | -2.28006 | 255 ft | 4 kts | 69° |
| 2026-05-05 12:37 | 53.36517 | -2.28045 | 255 ft | 4 kts | 123° |
| 2026-05-05 12:37 | 53.36520 | -2.28053 | 255 ft | 0 kts | 135° |
| 2026-05-05 12:42 | 53.36504 | -2.28028 | 255 ft | 6 kts | 137° |
| 2026-05-05 12:42 | 53.36476 | -2.27994 | 255 ft | 4 kts | 148° |
| 2026-05-05 12:42 | 53.36453 | -2.27968 | 255 ft | 4 kts | 143° |
| 2026-05-05 12:43 | 53.36421 | -2.27934 | 255 ft | 7 kts | 161° |
| 2026-05-05 12:43 | 53.36366 | -2.27975 | 255 ft | 11 kts | 226° |
| 2026-05-05 12:43 | 53.36293 | -2.28059 | 255 ft | 14 kts | 198° |
| 2026-05-05 12:43 | 53.36225 | -2.28116 | 255 ft | 10 kts | 216° |
| 2026-05-05 12:44 | 53.36166 | -2.28155 | 255 ft | 9 kts | 172° |
| 2026-05-05 12:44 | 53.36124 | -2.28096 | 255 ft | 8 kts | 136° |
| 2026-05-05 12:44 | 53.36057 | -2.27998 | 255 ft | 15 kts | 138° |
| 2026-05-05 12:44 | 53.35984 | -2.27890 | 255 ft | 13 kts | 138° |
| 2026-05-05 12:45 | 53.35905 | -2.27848 | 255 ft | 12 kts | 181° |
| 2026-05-05 12:45 | 53.35817 | -2.27863 | 251 ft | 14 kts | 186° |
| 2026-05-05 12:45 | 53.35709 | -2.27882 | 245 ft | 17 kts | 186° |
| 2026-05-05 12:45 | 53.35615 | -2.27918 | 240 ft | 12 kts | 221° |
| 2026-05-05 12:46 | 53.35557 | -2.28040 | 238 ft | 14 kts | 229° |
| 2026-05-05 12:46 | 53.35475 | -2.28137 | 234 ft | 14 kts | 203° |
| 2026-05-05 12:46 | 53.35395 | -2.28166 | 236 ft | 11 kts | 188° |
| 2026-05-05 12:46 | 53.35318 | -2.28201 | 235 ft | 14 kts | 205° |
| 2026-05-05 12:47 | 53.35226 | -2.28316 | 232 ft | 16 kts | 227° |
| 2026-05-05 12:47 | 53.35150 | -2.28468 | 227 ft | 18 kts | 232° |
| 2026-05-05 12:47 | 53.35075 | -2.28623 | 229 ft | 16 kts | 230° |
| 2026-05-05 12:47 | 53.35004 | -2.28759 | 227 ft | 16 kts | 226° |
| 2026-05-05 12:48 | 53.34931 | -2.28888 | 225 ft | 15 kts | 226° |
| 2026-05-05 12:48 | 53.34854 | -2.29024 | 219 ft | 18 kts | 226° |
| 2026-05-05 12:48 | 53.34781 | -2.29165 | 216 ft | 15 kts | 231° |
| 2026-05-05 12:48 | 53.34723 | -2.29281 | 217 ft | 13 kts | 224° |
| 2026-05-05 12:49 | 53.34664 | -2.29337 | 211 ft | 8 kts | 195° |
| 2026-05-05 12:49 | 53.34614 | -2.29346 | 212 ft | 8 kts | 178° |
| 2026-05-05 12:49 | 53.34555 | -2.29306 | 213 ft | 11 kts | 140° |
| 2026-05-05 12:49 | 53.34551 | -2.29197 | 217 ft | 12 kts | 49° |
| 2026-05-05 12:50 | 53.34566 | -2.29168 | 218 ft | 0 kts | 51° |
| 2026-05-05 12:50 | 53.34683 | -2.28927 | 220 ft | 63 kts | 51° |
| 2026-05-05 12:50 | 53.35098 | -2.28067 | 233 ft | 125 kts | 51° |
| 2026-05-05 12:50 | 53.35721 | -2.26748 | 464 ft | 153 kts | 51° |
| 2026-05-05 12:51 | 53.36391 | -2.25290 | 1095 ft | 164 kts | 48° |
| 2026-05-05 12:51 | 53.37145 | -2.23757 | 1692 ft | 177 kts | 47° |
| 2026-05-05 12:51 | 53.37979 | -2.22140 | 2241 ft | 190 kts | 44° |
| 2026-05-05 12:51 | 53.38965 | -2.20621 | 2870 ft | 196 kts | 30° |
| 2026-05-05 12:52 | 53.40265 | -2.19992 | 3467 ft | 202 kts | 356° |
| 2026-05-05 12:52 | 53.41598 | -2.20972 | 3832 ft | 228 kts | 315° |
| 2026-05-05 12:52 | 53.42321 | -2.23475 | 4321 ft | 254 kts | 283° |
| 2026-05-05 12:52 | 53.42625 | -2.26431 | 4843 ft | 263 kts | 287° |
| 2026-05-05 12:53 | 53.43165 | -2.29367 | 5105 ft | 265 kts | 289° |
| 2026-05-05 12:53 | 53.43873 | -2.32276 | 6050 ft | 267 kts | 296° |
| 2026-05-05 12:53 | 53.44726 | -2.35026 | 6948 ft | 271 kts | 299° |
| 2026-05-05 12:53 | 53.45642 | -2.37803 | 7871 ft | 274 kts | 299° |
| 2026-05-05 12:54 | 53.46901 | -2.43816 | 9686 ft | 281 kts | 269° |
| 2026-05-05 12:54 | 53.46622 | -2.47105 | 10384 ft | 293 kts | 261° |
| 2026-05-05 12:54 | 53.46241 | -2.50597 | 10672 ft | 316 kts | 261° |
| 2026-05-05 12:55 | 53.45824 | -2.54346 | 11010 ft | 335 kts | 260° |
| 2026-05-05 12:55 | 53.45525 | -2.56964 | 11406 ft | 341 kts | 258° |
| 2026-05-05 12:55 | 53.44717 | -2.60748 | 12091 ft | 349 kts | 244° |
| 2026-05-05 12:55 | 53.43333 | -2.64134 | 12808 ft | 356 kts | 230° |
| 2026-05-05 12:56 | 53.41442 | -2.66860 | 13582 ft | 363 kts | 216° |
| 2026-05-05 12:56 | 53.39153 | -2.68730 | 14292 ft | 369 kts | 202° |
| 2026-05-05 12:56 | 53.36741 | -2.70242 | 14994 ft | 371 kts | 202° |
| 2026-05-05 12:56 | 53.34315 | -2.71748 | 15706 ft | 373 kts | 202° |
| 2026-05-05 12:57 | 53.33485 | -2.72265 | 15961 ft | 373 kts | 204° |
| 2026-05-05 12:57 | 53.31118 | -2.73737 | 16647 ft | 374 kts | 203° |
| 2026-05-05 12:57 | 53.28669 | -2.75263 | 17311 ft | 377 kts | 203° |
| 2026-05-05 12:58 | 53.26199 | -2.76802 | 17959 ft | 380 kts | 202° |
| 2026-05-05 12:58 | 53.23748 | -2.78326 | 18573 ft | 382 kts | 202° |
| 2026-05-05 12:58 | 53.21217 | -2.79898 | 19143 ft | 384 kts | 202° |
| 2026-05-05 12:58 | 53.18734 | -2.81437 | 19689 ft | 387 kts | 202° |
| 2026-05-05 12:59 | 53.16208 | -2.83004 | 20238 ft | 389 kts | 202° |
| 2026-05-05 12:59 | 53.13663 | -2.84580 | 20777 ft | 391 kts | 202° |
| 2026-05-05 12:59 | 53.11100 | -2.86152 | 21311 ft | 394 kts | 200° |
| 2026-05-05 13:00 | 53.05638 | -2.87518 | 22314 ft | 404 kts | 180° |
| 2026-05-05 13:00 | 53.02826 | -2.86979 | 22813 ft | 409 kts | 173° |
| 2026-05-05 13:01 | 52.94394 | -2.84674 | 23258 ft | 411 kts | 173° |
| 2026-05-05 13:01 | 52.91564 | -2.83908 | 23767 ft | 413 kts | 173° |
| 2026-05-05 13:01 | 52.88721 | -2.83144 | 24172 ft | 415 kts | 173° |
| 2026-05-05 13:01 | 52.85854 | -2.82377 | 24555 ft | 418 kts | 173° |
| 2026-05-05 13:02 | 52.82971 | -2.81602 | 24930 ft | 421 kts | 172° |
| 2026-05-05 13:02 | 52.80074 | -2.80823 | 25286 ft | 423 kts | 173° |
| 2026-05-05 13:02 | 52.77158 | -2.80038 | 25654 ft | 426 kts | 173° |
| 2026-05-05 13:02 | 52.74227 | -2.79250 | 26025 ft | 428 kts | 172° |
| 2026-05-05 13:03 | 52.71273 | -2.78455 | 26412 ft | 430 kts | 173° |
| 2026-05-05 13:03 | 52.68314 | -2.77660 | 26819 ft | 431 kts | 172° |
| 2026-05-05 13:03 | 52.65345 | -2.76866 | 27158 ft | 435 kts | 172° |
| 2026-05-05 13:03 | 52.62345 | -2.76108 | 27467 ft | 437 kts | 174° |
| 2026-05-05 13:04 | 52.59294 | -2.75927 | 27763 ft | 440 kts | 183° |
| 2026-05-05 13:04 | 52.56239 | -2.76204 | 28084 ft | 442 kts | 184° |
| 2026-05-05 13:04 | 52.53160 | -2.76482 | 28407 ft | 444 kts | 183° |
| 2026-05-05 13:04 | 52.50063 | -2.76752 | 28695 ft | 447 kts | 183° |
| 2026-05-05 13:05 | 52.46939 | -2.77021 | 29014 ft | 449 kts | 184° |
| 2026-05-05 13:05 | 52.43824 | -2.77290 | 29394 ft | 449 kts | 183° |
| 2026-05-05 13:05 | 52.40706 | -2.77559 | 29749 ft | 450 kts | 183° |
| 2026-05-05 13:05 | 52.37579 | -2.77829 | 30138 ft | 450 kts | 183° |
| 2026-05-05 13:06 | 52.34451 | -2.78102 | 30465 ft | 450 kts | 183° |
| 2026-05-05 13:06 | 52.31323 | -2.78371 | 30819 ft | 449 kts | 183° |
| 2026-05-05 13:06 | 52.28200 | -2.78636 | 31181 ft | 449 kts | 183° |
| 2026-05-05 13:06 | 52.25085 | -2.78902 | 31502 ft | 449 kts | 183° |
| 2026-05-05 13:07 | 52.21973 | -2.79172 | 31954 ft | 445 kts | 183° |
| 2026-05-05 13:07 | 52.18889 | -2.79440 | 32397 ft | 443 kts | 184° |
| 2026-05-05 13:07 | 52.15819 | -2.79708 | 32766 ft | 442 kts | 183° |
| 2026-05-05 13:07 | 52.12742 | -2.79971 | 32995 ft | 444 kts | 183° |
| 2026-05-05 13:08 | 52.06591 | -2.80481 | 33028 ft | 441 kts | 183° |
| 2026-05-05 13:08 | 52.00451 | -2.80998 | 33023 ft | 441 kts | 184° |
| 2026-05-05 13:09 | 51.94373 | -2.81512 | 33012 ft | 438 kts | 184° |
| 2026-05-05 13:09 | 51.88289 | -2.82037 | 33009 ft | 439 kts | 184° |
| 2026-05-05 13:10 | 51.82199 | -2.82753 | 33009 ft | 438 kts | 187° |
| 2026-05-05 13:10 | 51.76167 | -2.84066 | 32999 ft | 437 kts | 189° |
| 2026-05-05 13:11 | 51.70152 | -2.85533 | 33006 ft | 436 kts | 189° |
| 2026-05-05 13:11 | 51.64138 | -2.86888 | 33002 ft | 436 kts | 188° |
| 2026-05-05 13:12 | 51.58124 | -2.88156 | 33004 ft | 435 kts | 188° |
| 2026-05-05 13:12 | 51.52274 | -2.90511 | 32991 ft | 434 kts | 201° |
| 2026-05-05 13:13 | 51.46606 | -2.93929 | 32997 ft | 435 kts | 201° |
| 2026-05-05 13:13 | 51.40929 | -2.97354 | 32997 ft | 436 kts | 201° |
| 2026-05-05 13:14 | 51.35248 | -3.00759 | 33000 ft | 436 kts | 201° |
| 2026-05-05 13:14 | 51.29555 | -3.04140 | 32990 ft | 436 kts | 200° |
| 2026-05-05 13:15 | 51.23860 | -3.07512 | 33005 ft | 436 kts | 200° |
| 2026-05-05 13:15 | 51.18222 | -3.10857 | 33009 ft | 435 kts | 200° |
| 2026-05-05 13:16 | 51.12554 | -3.14226 | 33007 ft | 434 kts | 200° |
| 2026-05-05 13:16 | 51.06887 | -3.17572 | 33005 ft | 434 kts | 200° |
| 2026-05-05 13:17 | 51.01223 | -3.20894 | 33001 ft | 434 kts | 200° |
| 2026-05-05 13:17 | 50.95560 | -3.24216 | 32997 ft | 434 kts | 200° |
| 2026-05-05 13:18 | 50.89898 | -3.27541 | 33001 ft | 434 kts | 200° |
| 2026-05-05 13:18 | 50.84230 | -3.30855 | 32991 ft | 434 kts | 200° |
| 2026-05-05 13:19 | 50.78553 | -3.34160 | 32991 ft | 435 kts | 200° |
| 2026-05-05 13:19 | 50.72867 | -3.37451 | 32981 ft | 435 kts | 200° |
| 2026-05-05 13:20 | 50.67211 | -3.40723 | 32992 ft | 436 kts | 200° |
| 2026-05-05 13:20 | 50.61511 | -3.44017 | 32991 ft | 436 kts | 200° |
| 2026-05-05 13:21 | 50.55650 | -3.46342 | 32988 ft | 435 kts | 185° |
| 2026-05-05 13:21 | 50.49629 | -3.45834 | 32991 ft | 435 kts | 168° |
| 2026-05-05 13:22 | 50.43988 | -3.42463 | 32989 ft | 436 kts | 153° |
| 2026-05-05 13:22 | 50.38599 | -3.38076 | 32991 ft | 436 kts | 153° |
| 2026-05-05 13:23 | 50.33203 | -3.33711 | 33005 ft | 436 kts | 153° |
| 2026-05-05 13:23 | 50.27801 | -3.29375 | 32998 ft | 436 kts | 153° |
| 2026-05-05 13:24 | 50.22286 | -3.25408 | 32864 ft | 436 kts | 162° |
| 2026-05-05 13:24 | 50.19354 | -3.24203 | 32200 ft | 436 kts | 167° |
| 2026-05-05 13:24 | 50.16375 | -3.23124 | 31084 ft | 443 kts | 167° |
| 2026-05-05 13:25 | 50.13431 | -3.22079 | 30021 ft | 436 kts | 167° |
| 2026-05-05 13:25 | 50.10500 | -3.21043 | 28822 ft | 427 kts | 167° |
| 2026-05-05 13:25 | 50.07638 | -3.20033 | 27739 ft | 417 kts | 167° |
| 2026-05-05 13:25 | 50.04858 | -3.19049 | 27124 ft | 406 kts | 167° |
| 2026-05-05 13:26 | 50.02096 | -3.17996 | 26431 ft | 410 kts | 162° |
| 2026-05-05 13:26 | 49.99442 | -3.16402 | 25728 ft | 408 kts | 154° |
| 2026-05-05 13:26 | 49.96979 | -3.14233 | 25052 ft | 407 kts | 147° |
| 2026-05-05 13:26 | 49.94630 | -3.11810 | 24383 ft | 405 kts | 146° |
| 2026-05-05 13:27 | 49.92277 | -3.09393 | 23710 ft | 405 kts | 146° |
| 2026-05-05 13:27 | 49.89928 | -3.06990 | 22975 ft | 404 kts | 146° |
| 2026-05-05 13:27 | 49.87588 | -3.04603 | 22352 ft | 400 kts | 146° |
| 2026-05-05 13:27 | 49.85269 | -3.02242 | 21730 ft | 397 kts | 146° |
| 2026-05-05 13:28 | 49.82970 | -2.99909 | 21137 ft | 394 kts | 145° |
| 2026-05-05 13:28 | 49.80682 | -2.97595 | 20572 ft | 391 kts | 145° |
| 2026-05-05 13:28 | 49.78418 | -2.95300 | 20019 ft | 387 kts | 145° |
| 2026-05-05 13:28 | 49.76175 | -2.93023 | 19492 ft | 384 kts | 144° |
| 2026-05-05 13:29 | 49.73949 | -2.90761 | 18971 ft | 381 kts | 144° |
| 2026-05-05 13:29 | 49.71741 | -2.88521 | 18480 ft | 378 kts | 144° |
| 2026-05-05 13:29 | 49.69549 | -2.86304 | 17966 ft | 375 kts | 144° |
| 2026-05-05 13:29 | 49.67372 | -2.84111 | 17483 ft | 372 kts | 144° |
| 2026-05-05 13:30 | 49.65217 | -2.81945 | 16995 ft | 369 kts | 144° |
| 2026-05-05 13:30 | 49.63067 | -2.79784 | 16497 ft | 368 kts | 144° |
| 2026-05-05 13:30 | 49.60930 | -2.77639 | 16010 ft | 366 kts | 144° |
| 2026-05-05 13:30 | 49.58801 | -2.75502 | 15494 ft | 365 kts | 144° |
| 2026-05-05 13:31 | 49.56676 | -2.73367 | 14989 ft | 364 kts | 144° |
| 2026-05-05 13:31 | 49.54560 | -2.71243 | 14457 ft | 363 kts | 144° |
| 2026-05-05 13:31 | 49.52444 | -2.69124 | 13919 ft | 363 kts | 144° |
| 2026-05-05 13:31 | 49.50326 | -2.67007 | 13323 ft | 363 kts | 144° |
| 2026-05-05 13:32 | 49.48212 | -2.64894 | 12776 ft | 361 kts | 144° |
| 2026-05-05 13:32 | 49.46139 | -2.62821 | 12186 ft | 359 kts | 144° |
| 2026-05-05 13:32 | 49.44014 | -2.60722 | 11612 ft | 358 kts | 147° |
| 2026-05-05 13:32 | 49.41811 | -2.59043 | 11023 ft | 359 kts | 153° |
| 2026-05-05 13:33 | 49.39559 | -2.57458 | 10718 ft | 349 kts | 153° |
| 2026-05-05 13:33 | 49.37401 | -2.55936 | 10592 ft | 335 kts | 153° |
| 2026-05-05 13:33 | 49.35323 | -2.54467 | 10465 ft | 322 kts | 153° |
| 2026-05-05 13:33 | 49.33351 | -2.53075 | 10226 ft | 303 kts | 153° |
| 2026-05-05 13:34 | 49.31441 | -2.51728 | 9814 ft | 293 kts | 153° |
| 2026-05-05 13:34 | 49.29563 | -2.50472 | 9302 ft | 294 kts | 161° |
| 2026-05-05 13:34 | 49.27550 | -2.50101 | 8734 ft | 291 kts | 179° |
| 2026-05-05 13:34 | 49.25543 | -2.50217 | 8163 ft | 286 kts | 181° |
| 2026-05-05 13:35 | 49.23569 | -2.50381 | 7604 ft | 281 kts | 181° |
| 2026-05-05 13:35 | 49.21669 | -2.50100 | 7049 ft | 271 kts | 157° |
| 2026-05-05 13:35 | 49.20122 | -2.48672 | 6503 ft | 260 kts | 131° |
| 2026-05-05 13:35 | 49.19108 | -2.46478 | 5946 ft | 248 kts | 108° |
| 2026-05-05 13:36 | 49.18764 | -2.43968 | 5373 ft | 238 kts | 85° |
| 2026-05-05 13:36 | 49.18932 | -2.41489 | 4815 ft | 233 kts | 78° |
| 2026-05-05 13:36 | 49.19148 | -2.39041 | 4243 ft | 231 kts | 78° |
| 2026-05-05 13:36 | 49.19357 | -2.36608 | 3676 ft | 230 kts | 78° |
| 2026-05-05 13:37 | 49.19561 | -2.34202 | 3155 ft | 226 kts | 79° |
| 2026-05-05 13:37 | 49.19753 | -2.31922 | 2966 ft | 207 kts | 80° |
| 2026-05-05 13:37 | 49.19887 | -2.29741 | 2380 ft | 207 kts | 81° |
| 2026-05-05 13:37 | 49.20075 | -2.27588 | 1893 ft | 196 kts | 76° |
| 2026-05-05 13:38 | 49.20293 | -2.25585 | 1394 ft | 187 kts | 71° |
| 2026-05-05 13:38 | 49.20415 | -2.23639 | 1166 ft | 190 kts | 81° |
| 2026-05-05 13:38 | 49.20562 | -2.21527 | 1856 ft | 208 kts | 78° |
| 2026-05-05 13:38 | 49.20718 | -2.19350 | 2483 ft | 204 kts | 79° |
| 2026-05-05 13:39 | 49.20850 | -2.17161 | 2909 ft | 209 kts | 84° |
| 2026-05-05 13:39 | 49.20535 | -2.14981 | 2975 ft | 218 kts | 114° |
| 2026-05-05 13:39 | 49.19901 | -2.13772 | 2977 ft | 224 kts | 136° |
| 2026-05-05 13:39 | 49.18461 | -2.12827 | 2981 ft | 232 kts | 173° |
| 2026-05-05 13:40 | 49.16879 | -2.13283 | 2983 ft | 235 kts | 208° |
| 2026-05-05 13:40 | 49.15613 | -2.14845 | 2990 ft | 235 kts | 228° |
| 2026-05-05 13:40 | 49.14146 | -2.17277 | 2982 ft | 234 kts | 231° |
| 2026-05-05 13:40 | 49.13057 | -2.19124 | 2980 ft | 233 kts | 231° |
| 2026-05-05 13:41 | 49.12440 | -2.20494 | 2971 ft | 230 kts | 250° |
| 2026-05-05 13:41 | 49.11954 | -2.22773 | 2979 ft | 229 kts | 260° |
| 2026-05-05 13:41 | 49.11841 | -2.25150 | 2984 ft | 223 kts | 277° |
| 2026-05-05 13:41 | 49.11963 | -2.27503 | 2983 ft | 222 kts | 280° |
| 2026-05-05 13:42 | 49.12116 | -2.29850 | 2984 ft | 221 kts | 281° |
| 2026-05-05 13:42 | 49.12265 | -2.32184 | 2984 ft | 221 kts | 281° |
| 2026-05-05 13:42 | 49.12417 | -2.34519 | 2982 ft | 220 kts | 281° |
| 2026-05-05 13:42 | 49.12570 | -2.36849 | 2984 ft | 221 kts | 281° |
| 2026-05-05 13:43 | 49.12718 | -2.39191 | 2982 ft | 222 kts | 280° |
| 2026-05-05 13:43 | 49.12981 | -2.41475 | 2977 ft | 213 kts | 297° |
| 2026-05-05 13:43 | 49.13750 | -2.43258 | 2892 ft | 194 kts | 323° |
| 2026-05-05 13:43 | 49.14850 | -2.44268 | 2784 ft | 177 kts | 346° |
| 2026-05-05 13:44 | 49.16019 | -2.44511 | 2540 ft | 167 kts | 6° |
| 2026-05-05 13:44 | 49.17130 | -2.44075 | 2231 ft | 165 kts | 26° |
| 2026-05-05 13:44 | 49.18048 | -2.43042 | 2012 ft | 166 kts | 45° |
| 2026-05-05 13:44 | 49.18739 | -2.41636 | 1982 ft | 170 kts | 59° |
| 2026-05-05 13:45 | 49.19079 | -2.39890 | 1983 ft | 174 kts | 78° |
| 2026-05-05 13:45 | 49.19235 | -2.38046 | 1984 ft | 175 kts | 78° |
| 2026-05-05 13:45 | 49.19391 | -2.36208 | 1983 ft | 175 kts | 78° |
| 2026-05-05 13:45 | 49.19547 | -2.34370 | 1970 ft | 175 kts | 78° |
| 2026-05-05 13:46 | 49.19702 | -2.32533 | 1822 ft | 174 kts | 78° |
| 2026-05-05 13:46 | 49.19861 | -2.30671 | 1614 ft | 179 kts | 79° |
| 2026-05-05 13:46 | 49.20014 | -2.28841 | 1376 ft | 167 kts | 78° |
| 2026-05-05 13:46 | 49.20156 | -2.27138 | 1155 ft | 156 kts | 78° |
| 2026-05-05 13:47 | 49.20288 | -2.25563 | 984 ft | 141 kts | 78° |
| 2026-05-05 13:47 | 49.20382 | -2.24147 | 837 ft | 131 kts | 77° |
| 2026-05-05 13:47 | 49.20529 | -2.22787 | 659 ft | 129 kts | 75° |
| 2026-05-05 13:47 | 49.20628 | -2.21423 | 454 ft | 127 kts | 75° |
| 2026-05-05 13:48 | 49.20748 | -2.20120 | 293 ft | 119 kts | 77° |
| 2026-05-05 13:48 | 49.20832 | -2.19150 | 285 ft | 52 kts | 83° |
| 2026-05-05 13:48 | 49.20860 | -2.18819 | 283 ft | 28 kts | 82° |
| 2026-05-05 13:48 | 49.20881 | -2.18551 | 282 ft | 20 kts | 83° |
| 2026-05-05 13:49 | 49.20866 | -2.18400 | 283 ft | 11 kts | 133° |
| 2026-05-05 13:49 | 49.20814 | -2.18376 | 284 ft | 6 kts | 187° |
| 2026-05-05 13:49 | 49.20780 | -2.18405 | 285 ft | 5 kts | 217° |
| 2026-05-05 13:49 | 49.20753 | -2.18441 | 284 ft | 5 kts | 226° |
| 2026-05-05 13:50 | 49.20737 | -2.18484 | 284 ft | 4 kts | 250° |
| 2026-05-05 13:50 | 49.20726 | -2.18598 | 284 ft | 18 kts | 263° |
| 2026-05-05 13:50 | 49.20712 | -2.18780 | 284 ft | 16 kts | 263° |
| 2026-05-05 13:50 | 49.20698 | -2.18946 | 284 ft | 15 kts | 263° |
| 2026-05-05 13:51 | 49.20685 | -2.19097 | 284 ft | 14 kts | 263° |
| 2026-05-05 13:51 | 49.20686 | -2.19236 | 284 ft | 12 kts | 282° |
| 2026-05-05 13:51 | 49.20706 | -2.19356 | 289 ft | 11 kts | 284° |
| 2026-05-05 13:51 | 49.20709 | -2.19463 | 284 ft | 10 kts | 263° |
| 2026-05-05 13:52 | 49.20695 | -2.19558 | 284 ft | 9 kts | 258° |
| 2026-05-05 13:52 | 49.20673 | -2.19638 | 284 ft | 8 kts | 226° |
| 2026-05-05 13:52 | 49.20632 | -2.19682 | 284 ft | 6 kts | 215° |
| 2026-05-05 13:52 | 49.20601 | -2.19708 | 284 ft | 4 kts | 185° |
| 2026-05-05 13:53 | 49.20575 | -2.19703 | 284 ft | 3 kts | 171° |
| 2026-05-05 13:53 | 49.20561 | -2.19700 | 284 ft | 2 kts | 172° |
| 2026-05-05 13:53 | 49.20558 | -2.19699 | 284 ft | 0 kts | 171° |